createdAt,value
2023-03-02T00:01:28.490Z,101015.47
2023-03-02T00:03:59.675Z,101017.41
2023-03-02T00:06:29.620Z,101012.31
2023-03-02T00:09:00.639Z,101015.28
2023-03-02T00:11:30.254Z,101015.53
2023-03-02T00:13:56.995Z,101013.81
2023-03-02T00:16:23.844Z,101008.56
2023-03-02T00:18:50.452Z,101007.00
2023-03-02T00:21:17.286Z,101003.56
2023-03-02T00:23:44.939Z,100999.06
2023-03-02T00:26:11.718Z,101004.41
2023-03-02T00:28:38.283Z,101004.28
2023-03-02T00:31:05.675Z,100998.88
2023-03-02T00:33:33.555Z,100989.13
2023-03-02T00:36:01.006Z,100985.56
2023-03-02T00:38:27.748Z,100989.13
2023-03-02T00:40:55.551Z,100991.00
2023-03-02T00:43:27.296Z,100990.22
2023-03-02T00:45:55.407Z,100987.78
2023-03-02T00:48:22.909Z,100979.94
2023-03-02T00:50:49.595Z,100973.19
2023-03-02T00:53:18.015Z,100977.91
2023-03-02T00:55:53.694Z,100982.44
2023-03-02T00:58:21.365Z,100979.19
2023-03-02T01:00:48.281Z,100974.06
2023-03-02T01:03:15.051Z,100964.47
2023-03-02T01:05:41.673Z,100956.53
2023-03-02T01:08:08.452Z,100948.59
2023-03-02T01:10:35.064Z,100952.03
2023-03-02T01:13:01.712Z,100958.94
2023-03-02T01:15:28.295Z,100952.81
2023-03-02T01:17:55.050Z,100946.59
2023-03-02T01:20:21.617Z,100940.63
2023-03-02T01:22:48.487Z,100930.19
2023-03-02T01:25:15.100Z,100925.84
2023-03-02T01:27:41.692Z,100927.59
2023-03-02T01:30:08.984Z,100920.63
2023-03-02T01:32:35.684Z,100918.09
2023-03-02T01:35:02.319Z,100922.56
2023-03-02T01:37:28.942Z,100912.81
2023-03-02T01:39:55.506Z,100908.44
2023-03-02T01:42:22.092Z,100903.13
2023-03-02T01:44:50.904Z,100901.25
2023-03-02T01:47:38.960Z,100903.16
2023-03-02T01:50:19.310Z,100900.56
2023-03-02T01:52:47.130Z,100897.19
2023-03-02T01:55:20.164Z,100892.25
2023-03-02T01:57:49.928Z,100890.47
2023-03-02T02:00:22.387Z,100887.00
2023-03-02T02:02:51.470Z,100884.72
2023-03-02T02:05:25.541Z,100888.53
2023-03-02T02:07:52.380Z,100875.47
2023-03-02T02:10:19.751Z,100884.19
2023-03-02T02:12:46.328Z,100883.31
2023-03-02T02:15:13.028Z,100881.94
2023-03-02T02:17:40.443Z,100884.56
2023-03-02T02:20:42.827Z,100886.31
2023-03-02T02:23:24.326Z,100880.25
2023-03-02T02:25:53.639Z,100874.97
2023-03-02T02:28:25.252Z,100880.22
2023-03-02T02:30:59.452Z,100886.59
2023-03-02T02:33:27.337Z,100877.91
2023-03-02T02:35:57.675Z,100881.41
2023-03-02T02:38:25.618Z,100885.06
2023-03-02T02:40:57.221Z,100882.53
2023-03-02T02:43:23.831Z,100876.31
2023-03-02T02:45:54.352Z,100874.56
2023-03-02T02:48:24.309Z,100874.53
2023-03-02T02:51:00.437Z,100873.63
2023-03-02T02:53:35.890Z,100872.72
2023-03-02T02:56:04.507Z,100877.22
2023-03-02T02:58:50.402Z,100873.94
2023-03-02T03:01:19.532Z,100865.13
2023-03-02T03:04:01.125Z,100870.53
2023-03-02T03:06:42.673Z,100859.03
2023-03-02T03:09:12.492Z,100850.13
2023-03-02T03:11:46.474Z,100855.66
2023-03-02T03:14:28.098Z,100859.34
2023-03-02T03:16:55.134Z,100861.22
2023-03-02T03:19:33.079Z,100858.72
2023-03-02T03:22:01.448Z,100855.34
2023-03-02T03:24:30.830Z,100867.72
2023-03-02T03:26:58.449Z,100868.59
2023-03-02T03:29:27.903Z,100867.81
2023-03-02T03:31:57.025Z,100871.41
2023-03-02T03:34:24.464Z,100881.97
2023-03-02T03:36:51.691Z,100891.53
2023-03-02T03:39:18.765Z,100886.19
2023-03-02T03:41:45.342Z,100885.47
2023-03-02T03:44:12.864Z,100892.50
2023-03-02T03:46:39.716Z,100896.00
2023-03-02T03:49:06.514Z,100900.75
2023-03-02T03:51:35.524Z,100906.94
2023-03-02T03:54:08.335Z,100897.31
2023-03-02T03:56:45.034Z,100905.25
2023-03-02T03:59:13.999Z,100896.63
2023-03-02T04:01:46.900Z,100900.19
2023-03-02T04:04:17.784Z,100893.22
2023-03-02T04:06:44.556Z,100897.75
2023-03-02T04:09:12.329Z,100898.91
2023-03-02T04:11:41.266Z,100897.16
2023-03-02T04:14:09.186Z,100907.63
2023-03-02T04:16:37.073Z,100898.84
2023-03-02T04:19:09.507Z,100899.81
2023-03-02T04:21:41.105Z,100900.75
2023-03-02T04:24:09.345Z,100904.16
2023-03-02T04:26:37.217Z,100894.47
2023-03-02T04:29:03.917Z,100897.09
2023-03-02T04:31:31.341Z,100891.84
2023-03-02T04:33:58.705Z,100891.78
2023-03-02T04:36:25.627Z,100890.94
2023-03-02T04:38:53.021Z,100885.91
2023-03-02T04:41:19.740Z,100885.13
2023-03-02T04:43:46.317Z,100888.66
2023-03-02T04:46:20.041Z,100878.16
2023-03-02T04:48:46.685Z,100878.13
2023-03-02T04:51:31.418Z,100874.59
2023-03-02T04:54:01.214Z,100878.25
2023-03-02T04:56:28.733Z,100875.75
2023-03-02T04:58:55.758Z,100880.13
2023-03-02T05:01:22.601Z,100883.66
2023-03-02T05:03:49.359Z,100888.09
2023-03-02T05:06:16.926Z,100874.09
2023-03-02T05:08:44.574Z,100881.88
2023-03-02T05:11:21.876Z,100885.25
2023-03-02T05:13:50.621Z,100879.00
2023-03-02T05:16:18.026Z,100885.91
2023-03-02T05:18:44.628Z,100879.66
2023-03-02T05:21:12.100Z,100889.19
2023-03-02T05:23:39.945Z,100889.13
2023-03-02T05:26:06.642Z,100882.84
2023-03-02T05:28:33.520Z,100891.53
2023-03-02T05:31:00.445Z,100885.31
2023-03-02T05:33:27.073Z,100889.63
2023-03-02T05:35:53.750Z,100890.41
2023-03-02T05:38:20.665Z,100897.34
2023-03-02T05:40:48.180Z,100888.56
2023-03-02T05:43:18.717Z,100890.28
2023-03-02T05:45:46.120Z,100898.56
2023-03-02T05:48:14.083Z,100903.91
2023-03-02T05:50:41.570Z,100904.72
2023-03-02T05:53:08.190Z,100902.84
2023-03-02T05:55:37.167Z,100910.59
2023-03-02T05:58:06.785Z,100912.25
2023-03-02T06:00:33.568Z,100913.06
2023-03-02T06:03:00.244Z,100904.22
2023-03-02T06:05:26.911Z,100907.59
2023-03-02T06:07:53.879Z,100910.06
2023-03-02T06:10:20.804Z,100911.63
2023-03-02T06:12:47.371Z,100920.28
2023-03-02T06:15:14.073Z,100909.63
2023-03-02T06:17:40.681Z,100909.44
2023-03-02T06:20:10.543Z,100912.94
2023-03-02T06:22:41.381Z,100911.88
2023-03-02T06:25:10.439Z,100903.75
2023-03-02T06:27:38.763Z,100912.25
2023-03-02T06:30:07.216Z,100912.06
2023-03-02T06:32:35.319Z,100916.22
2023-03-02T06:35:06.047Z,100922.97
2023-03-02T06:37:33.447Z,100917.41
2023-03-02T06:40:00.543Z,100923.28
2023-03-02T06:42:28.213Z,100926.56
2023-03-02T06:44:55.214Z,100927.13
2023-03-02T06:47:22.836Z,100927.66
2023-03-02T06:49:49.409Z,100929.94
2023-03-02T06:52:16.436Z,100929.59
2023-03-02T06:54:43.046Z,100931.84
2023-03-02T06:57:09.779Z,100935.84
2023-03-02T06:59:36.546Z,100931.88
2023-03-02T07:02:03.360Z,100941.06
2023-03-02T07:04:32.356Z,100929.91
2023-03-02T07:06:59.000Z,100924.09
2023-03-02T07:09:25.657Z,100924.38
2023-03-02T07:11:52.254Z,100927.13
2023-03-02T07:14:18.792Z,100917.66
2023-03-02T07:16:45.369Z,100922.22
2023-03-02T07:19:15.201Z,100922.25
2023-03-02T07:21:41.841Z,100917.03
2023-03-02T07:24:08.588Z,100914.09
2023-03-02T07:26:35.168Z,100918.53
2023-03-02T07:29:01.908Z,100918.25
2023-03-02T07:31:28.804Z,100913.66
2023-03-02T07:33:55.516Z,100918.81
2023-03-02T07:36:22.152Z,100906.41
2023-03-02T07:38:48.844Z,100911.66
2023-03-02T07:41:16.900Z,100911.72
2023-03-02T07:43:43.944Z,100918.63
2023-03-02T07:46:10.704Z,100906.88
2023-03-02T07:48:37.498Z,100904.16
2023-03-02T07:51:06.805Z,100901.19
2023-03-02T07:53:33.557Z,100906.31
2023-03-02T07:56:02.308Z,100901.84
2023-03-02T07:58:28.997Z,100898.19
2023-03-02T08:00:55.909Z,100902.69
2023-03-02T08:03:22.569Z,100902.69
2023-03-02T08:05:49.188Z,100901.94
2023-03-02T08:08:15.821Z,100902.00
2023-03-02T08:10:42.373Z,100903.88
2023-03-02T08:13:09.002Z,100905.78
2023-03-02T08:15:35.602Z,100899.72
2023-03-02T08:18:02.170Z,100900.72
2023-03-02T08:20:28.781Z,100899.81
2023-03-02T08:22:55.335Z,100894.31
2023-03-02T08:25:21.942Z,100895.09
2023-03-02T08:27:48.613Z,100889.84
2023-03-02T08:30:15.413Z,100889.03
2023-03-02T08:32:42.033Z,100885.41
2023-03-02T08:35:09.188Z,100884.44
2023-03-02T08:37:35.828Z,100883.44
2023-03-02T08:40:02.391Z,100874.34
2023-03-02T08:42:28.934Z,100872.47
2023-03-02T08:44:55.497Z,100882.28
2023-03-02T08:47:22.062Z,100870.53
2023-03-02T08:49:49.897Z,100875.69
2023-03-02T08:52:16.476Z,100865.66
2023-03-02T08:54:43.093Z,100867.38
2023-03-02T08:57:12.950Z,100869.00
2023-03-02T08:59:39.886Z,100864.59
2023-03-02T09:02:07.456Z,100870.69
2023-03-02T09:04:34.135Z,100863.63
2023-03-02T09:07:00.747Z,100861.75
2023-03-02T09:09:27.312Z,100870.41
2023-03-02T09:11:53.894Z,100860.63
2023-03-02T09:14:20.578Z,100862.91
2023-03-02T09:16:47.415Z,100866.19
2023-03-02T09:19:14.493Z,100856.69
2023-03-02T09:21:41.149Z,100851.16
2023-03-02T09:24:07.990Z,100851.06
2023-03-02T09:26:35.009Z,100841.97
2023-03-02T09:29:01.973Z,100843.56
2023-03-02T09:31:30.335Z,100846.00
2023-03-02T09:33:57.395Z,100845.88
2023-03-02T09:36:26.160Z,100841.63
2023-03-02T09:38:53.365Z,100839.66
2023-03-02T09:41:19.942Z,100835.28
2023-03-02T09:44:00.103Z,100836.72
2023-03-02T09:47:00.170Z,100835.91
2023-03-02T09:50:04.153Z,100833.19
2023-03-02T09:52:32.439Z,100834.09
2023-03-02T09:55:14.676Z,100827.03
2023-03-02T09:57:42.081Z,100830.63
2023-03-02T10:00:19.924Z,100832.31
2023-03-02T10:02:56.212Z,100820.41
2023-03-02T10:05:33.199Z,100826.88
2023-03-02T10:08:00.361Z,100824.75
2023-03-02T10:10:45.226Z,100818.03
2023-03-02T10:13:30.697Z,100813.31
2023-03-02T10:16:12.241Z,100821.59
2023-03-02T10:18:45.759Z,100824.47
2023-03-02T10:21:50.891Z,100812.94
2023-03-02T10:24:38.816Z,100807.50
2023-03-02T10:27:24.583Z,100801.53
2023-03-02T10:29:59.894Z,100799.69
2023-03-02T10:32:33.035Z,100796.88
2023-03-02T10:35:02.402Z,100799.00
2023-03-02T10:37:30.735Z,100791.06
2023-03-02T10:39:57.515Z,100789.03
2023-03-02T10:42:32.319Z,100781.69
2023-03-02T10:45:32.918Z,100778.41
2023-03-02T10:48:10.970Z,100765.97
2023-03-02T10:50:38.165Z,100768.91
2023-03-02T10:53:08.700Z,100756.06
2023-03-02T10:55:35.453Z,100763.91
2023-03-02T10:58:06.777Z,100749.78
2023-03-02T11:00:35.337Z,100758.75
2023-03-02T11:03:06.068Z,100750.94
2023-03-02T11:05:40.051Z,100744.34
2023-03-02T11:08:10.659Z,100736.00
2023-03-02T11:10:39.507Z,100739.84
2023-03-02T11:13:18.817Z,100734.06
2023-03-02T11:15:52.079Z,100740.38
2023-03-02T11:18:41.983Z,100736.59
2023-03-02T11:21:16.234Z,100723.09
2023-03-02T11:23:52.386Z,100728.81
2023-03-02T11:26:28.800Z,100732.75
2023-03-02T11:29:11.675Z,100718.38
2023-03-02T11:31:47.077Z,100721.78
2023-03-02T11:34:44.536Z,100721.94
2023-03-02T11:37:27.929Z,100717.19
2023-03-02T11:39:57.474Z,100722.16
2023-03-02T11:42:31.560Z,100713.59
2023-03-02T11:45:03.280Z,100714.28
2023-03-02T11:47:32.914Z,100718.81
2023-03-02T11:50:05.391Z,100705.91
2023-03-02T11:52:37.722Z,100708.78
2023-03-02T11:55:13.113Z,100696.16
2023-03-02T11:57:48.652Z,100703.22
2023-03-02T12:00:30.859Z,100700.75
2023-03-02T12:03:01.900Z,100698.59
2023-03-02T12:05:31.453Z,100700.69
2023-03-02T12:08:17.676Z,100692.31
2023-03-02T12:10:57.571Z,100693.06
2023-03-02T12:13:43.314Z,100695.81
2023-03-02T12:16:22.028Z,100683.28
2023-03-02T12:18:50.765Z,100688.19
2023-03-02T12:21:21.186Z,100684.47
2023-03-02T12:23:47.688Z,100680.22
2023-03-02T12:26:20.423Z,100676.25
2023-03-02T12:29:03.765Z,100686.78
2023-03-02T12:31:51.678Z,100680.38
2023-03-02T12:34:24.460Z,100674.66
2023-03-02T12:36:57.999Z,100678.00
2023-03-02T12:39:27.395Z,100674.22
2023-03-02T12:42:39.773Z,100665.28
2023-03-02T12:45:36.507Z,100658.44
2023-03-02T12:48:19.337Z,100659.69
2023-03-02T12:50:48.166Z,100645.16
2023-03-02T12:53:19.492Z,100652.81
2023-03-02T12:55:46.682Z,100654.16
2023-03-02T12:58:23.662Z,100649.53
2023-03-02T13:01:00.197Z,100635.84
2023-03-02T13:03:30.328Z,100647.06
2023-03-02T13:06:04.575Z,100648.94
2023-03-02T13:08:32.320Z,100635.31
2023-03-02T13:11:01.899Z,100641.78
2023-03-02T13:13:39.848Z,100632.84
2023-03-02T13:16:28.312Z,100630.00
2023-03-02T13:18:58.084Z,100626.06
2023-03-02T13:21:31.412Z,100626.00
2023-03-02T13:23:58.238Z,100618.28
2023-03-02T13:26:35.994Z,100610.69
2023-03-02T13:29:06.181Z,100616.81
2023-03-02T13:31:35.177Z,100609.97
2023-03-02T13:34:01.961Z,100611.78
2023-03-02T13:36:35.388Z,100605.00
2023-03-02T13:39:06.994Z,100608.28
2023-03-02T13:41:36.613Z,100603.66
2023-03-02T13:44:19.916Z,100596.88
2023-03-02T13:46:47.134Z,100594.22
2023-03-02T13:49:13.743Z,100587.84
2023-03-02T13:51:43.515Z,100574.06
2023-03-02T13:54:22.899Z,100579.66
2023-03-02T13:56:51.248Z,100578.53
2023-03-02T13:59:19.936Z,100579.69
2023-03-02T14:01:46.889Z,100573.19
2023-03-02T14:04:17.640Z,100571.09
2023-03-02T14:06:45.765Z,100563.22
2023-03-02T14:09:13.205Z,100561.94
2023-03-02T14:11:45.825Z,100557.78
2023-03-02T14:14:16.422Z,100556.31
2023-03-02T14:16:43.159Z,100556.06
2023-03-02T14:19:16.305Z,100555.91
2023-03-02T14:21:43.488Z,100551.84
2023-03-02T14:24:10.560Z,100546.81
2023-03-02T14:26:57.934Z,100557.31
2023-03-02T14:29:33.451Z,100548.81
2023-03-02T14:32:06.679Z,100552.28
2023-03-02T14:34:36.103Z,100541.63
2023-03-02T14:37:06.461Z,100542.88
2023-03-02T14:39:38.231Z,100543.78
2023-03-02T14:42:06.356Z,100538.19
2023-03-02T14:44:33.040Z,100540.47
2023-03-02T14:46:59.661Z,100536.56
2023-03-02T14:49:26.251Z,100544.63
2023-03-02T14:52:08.669Z,100541.03
2023-03-02T14:54:41.455Z,100538.38
2023-03-02T14:57:22.085Z,100542.00
2023-03-02T14:59:49.355Z,100537.75
2023-03-02T15:02:25.295Z,100533.75
2023-03-02T15:04:56.160Z,100536.59
2023-03-02T15:07:25.171Z,100538.00
2023-03-02T15:09:51.750Z,100536.59
2023-03-02T15:12:18.324Z,100530.81
2023-03-02T15:14:44.911Z,100546.13
2023-03-02T15:17:11.502Z,100533.75
2023-03-02T15:19:38.061Z,100534.69
2023-03-02T15:22:05.045Z,100540.06
2023-03-02T15:24:33.380Z,100537.97
2023-03-02T15:27:00.627Z,100543.25
2023-03-02T15:29:27.304Z,100544.47
2023-03-02T15:31:53.948Z,100540.91
2023-03-02T15:34:20.640Z,100550.56
2023-03-02T15:36:47.226Z,100550.44
2023-03-02T15:39:14.783Z,100553.72
2023-03-02T15:41:44.286Z,100558.25
2023-03-02T15:44:22.096Z,100560.03
2023-03-02T15:46:50.232Z,100563.31
2023-03-02T15:49:17.171Z,100558.63
2023-03-02T15:51:45.924Z,100558.75
2023-03-02T15:54:12.647Z,100563.56
2023-03-02T15:56:44.313Z,100553.97
2023-03-02T15:59:12.113Z,100557.84
2023-03-02T16:01:39.074Z,100562.38
2023-03-02T16:04:05.723Z,100566.28
2023-03-02T16:06:32.304Z,100567.88
2023-03-02T16:08:58.850Z,100566.69
2023-03-02T16:11:25.418Z,100563.34
2023-03-02T16:13:52.465Z,100562.72
2023-03-02T16:16:20.555Z,100578.38
2023-03-02T16:18:55.311Z,100578.97
2023-03-02T16:21:22.302Z,100575.34
2023-03-02T16:23:49.441Z,100578.81
2023-03-02T16:26:21.784Z,100579.44
2023-03-02T16:28:48.948Z,100575.78
2023-03-02T16:31:19.001Z,100572.69
2023-03-02T16:33:46.761Z,100575.19
2023-03-02T16:36:14.611Z,100590.41
2023-03-02T16:38:41.558Z,100584.78
2023-03-02T16:41:19.836Z,100591.91
2023-03-02T16:43:54.599Z,100591.84
2023-03-02T16:46:23.224Z,100596.28
2023-03-02T16:48:49.964Z,100596.19
2023-03-02T16:51:18.173Z,100597.78
2023-03-02T16:53:45.457Z,100606.78
2023-03-02T16:56:13.196Z,100608.84
2023-03-02T16:58:41.423Z,100620.66
2023-03-02T17:01:11.666Z,100622.88
2023-03-02T17:03:38.362Z,100624.22
2023-03-02T17:06:06.096Z,100634.50
2023-03-02T17:08:32.672Z,100637.72
2023-03-02T17:10:59.294Z,100636.69
2023-03-02T17:13:25.923Z,100631.38
2023-03-02T17:15:52.942Z,100639.19
2023-03-02T17:18:19.674Z,100641.53
2023-03-02T17:20:46.578Z,100643.28
2023-03-02T17:23:14.205Z,100648.56
2023-03-02T17:25:40.819Z,100653.41
2023-03-02T17:28:07.448Z,100655.41
2023-03-02T17:30:34.465Z,100649.94
2023-03-02T17:33:01.292Z,100643.00
2023-03-02T17:35:27.872Z,100652.44
2023-03-02T17:37:54.659Z,100658.19
2023-03-02T17:40:21.373Z,100656.88
2023-03-02T17:42:48.026Z,100652.59
2023-03-02T17:45:18.140Z,100644.06
2023-03-02T17:47:44.875Z,100651.88
2023-03-02T17:50:13.196Z,100644.91
2023-03-02T17:52:39.854Z,100647.44
2023-03-02T17:55:07.429Z,100651.31
2023-03-02T17:57:34.079Z,100652.09
2023-03-02T18:00:00.708Z,100657.91
2023-03-02T18:02:27.265Z,100665.06
2023-03-02T18:04:53.840Z,100664.13
2023-03-02T18:07:20.368Z,100667.72
2023-03-02T18:09:47.050Z,100662.34
2023-03-02T18:12:13.576Z,100662.97
2023-03-02T18:14:40.208Z,100662.63
2023-03-02T18:17:08.792Z,100665.22
2023-03-02T18:19:36.944Z,100668.50
2023-03-02T18:22:04.333Z,100663.50
2023-03-02T18:24:30.957Z,100658.50
2023-03-02T18:26:57.613Z,100662.81
2023-03-02T18:29:24.293Z,100661.94
2023-03-02T18:31:53.257Z,100660.47
2023-03-02T18:34:20.501Z,100663.25
2023-03-02T18:36:47.530Z,100665.13
2023-03-02T18:39:14.240Z,100662.25
2023-03-02T18:41:41.275Z,100662.81
2023-03-02T18:44:07.969Z,100670.00
2023-03-02T18:46:34.614Z,100659.09
2023-03-02T18:49:01.275Z,100659.84
2023-03-02T18:51:28.100Z,100669.59
2023-03-02T18:53:55.820Z,100659.22
2023-03-02T18:56:23.077Z,100669.09
2023-03-02T18:58:51.434Z,100672.50
2023-03-02T19:01:18.805Z,100673.56
2023-03-02T19:03:46.030Z,100667.91
2023-03-02T19:06:14.140Z,100669.38
2023-03-02T19:08:41.016Z,100671.06
2023-03-02T19:11:09.118Z,100664.63
2023-03-02T19:13:35.766Z,100662.91
2023-03-02T19:16:03.024Z,100667.41
2023-03-02T19:18:30.418Z,100675.94
2023-03-02T19:20:57.754Z,100665.84
2023-03-02T19:23:24.896Z,100674.59
2023-03-02T19:25:51.896Z,100669.66
2023-03-02T19:28:18.626Z,100671.78
2023-03-02T19:30:45.235Z,100674.81
2023-03-02T19:33:11.830Z,100670.19
2023-03-02T19:35:39.050Z,100677.66
2023-03-02T19:38:06.846Z,100670.94
2023-03-02T19:40:34.581Z,100678.22
2023-03-02T19:43:02.232Z,100674.41
2023-03-02T19:45:32.552Z,100678.72
2023-03-02T19:48:01.588Z,100687.13
2023-03-02T19:50:29.620Z,100683.78
2023-03-02T19:52:56.711Z,100685.97
2023-03-02T19:55:24.409Z,100677.44
2023-03-02T19:57:56.486Z,100685.81
2023-03-02T20:00:24.023Z,100686.88
2023-03-02T20:02:50.891Z,100684.69
2023-03-02T20:05:18.071Z,100680.69
2023-03-02T20:07:45.095Z,100680.28
2023-03-02T20:10:22.451Z,100676.94
2023-03-02T20:12:49.014Z,100680.75
2023-03-02T20:15:16.733Z,100677.63
2023-03-02T20:17:43.533Z,100677.31
2023-03-02T20:20:11.912Z,100684.63
2023-03-02T20:22:38.435Z,100685.94
2023-03-02T20:25:05.565Z,100688.03
2023-03-02T20:27:32.261Z,100691.06
2023-03-02T20:29:59.312Z,100699.25
2023-03-02T20:32:25.941Z,100695.72
2023-03-02T20:34:52.568Z,100696.00
2023-03-02T20:37:19.180Z,100698.75
2023-03-02T20:39:48.022Z,100696.91
2023-03-02T20:42:14.648Z,100698.81
2023-03-02T20:44:41.404Z,100702.66
2023-03-02T20:47:11.401Z,100701.03
2023-03-02T20:49:38.153Z,100703.97
2023-03-02T20:52:05.503Z,100702.44
2023-03-02T20:54:36.477Z,100698.94
2023-03-02T20:57:05.368Z,100693.97
2023-03-02T20:59:32.695Z,100695.16
2023-03-02T21:01:59.632Z,100692.69
2023-03-02T21:04:29.076Z,100690.25
2023-03-02T21:06:56.227Z,100681.78
2023-03-02T21:09:22.805Z,100689.41
2023-03-02T21:11:49.407Z,100687.19
2023-03-02T21:14:16.192Z,100681.25
2023-03-02T21:16:44.291Z,100682.34
2023-03-02T21:19:16.011Z,100674.03
2023-03-02T21:21:42.895Z,100674.50
2023-03-02T21:24:18.089Z,100677.28
2023-03-02T21:26:46.296Z,100678.53
2023-03-02T21:29:13.636Z,100678.72
2023-03-02T21:31:42.307Z,100675.75
2023-03-02T21:34:08.910Z,100672.41
2023-03-02T21:36:35.727Z,100672.47
2023-03-02T21:39:05.037Z,100671.78
2023-03-02T21:41:31.666Z,100665.69
2023-03-02T21:43:58.540Z,100667.50
2023-03-02T21:46:25.379Z,100672.88
2023-03-02T21:48:52.150Z,100664.91
2023-03-02T21:51:19.069Z,100673.06
2023-03-02T21:53:46.165Z,100671.31
2023-03-02T21:56:23.817Z,100672.13
2023-03-02T21:58:52.762Z,100671.25
2023-03-02T22:01:19.740Z,100665.09
2023-03-02T22:03:46.606Z,100667.81
2023-03-02T22:06:19.045Z,100668.75
2023-03-02T22:08:45.877Z,100669.72
2023-03-02T22:11:22.823Z,100663.50
2023-03-02T22:13:52.432Z,100662.75
2023-03-02T22:16:27.452Z,100664.59
2023-03-02T22:19:01.000Z,100662.97
2023-03-02T22:21:37.497Z,100659.53
2023-03-02T22:24:10.580Z,100653.47
2023-03-02T22:26:52.401Z,100650.06
2023-03-02T22:29:27.907Z,100651.97
2023-03-02T22:31:57.271Z,100659.94
2023-03-02T22:34:29.832Z,100652.84
2023-03-02T22:37:09.611Z,100656.34
2023-03-02T22:39:36.461Z,100659.88
2023-03-02T22:42:19.219Z,100655.50
2023-03-02T22:45:15.336Z,100651.13
2023-03-02T22:47:43.436Z,100654.69
2023-03-02T22:50:24.394Z,100645.94
2023-03-02T22:52:52.734Z,100649.63
2023-03-02T22:55:36.895Z,100649.63
2023-03-02T22:58:22.222Z,100652.53
2023-03-02T23:00:49.951Z,100648.22
2023-03-02T23:03:22.377Z,100655.81
2023-03-02T23:05:52.904Z,100647.91
2023-03-02T23:08:28.958Z,100644.94
2023-03-02T23:10:59.414Z,100639.22
2023-03-02T23:13:36.957Z,100647.63
2023-03-02T23:16:24.586Z,100646.59
2023-03-02T23:18:53.966Z,100654.84
2023-03-02T23:21:28.228Z,100649.91
2023-03-02T23:23:55.317Z,100642.19
2023-03-02T23:26:21.925Z,100641.53
2023-03-02T23:28:50.060Z,100640.09
2023-03-02T23:31:18.480Z,100638.59
2023-03-02T23:33:45.235Z,100641.63
2023-03-02T23:36:11.933Z,100629.94
2023-03-02T23:38:39.576Z,100636.38
2023-03-02T23:41:07.484Z,100626.22
2023-03-02T23:43:35.333Z,100635.94
2023-03-02T23:46:02.007Z,100633.50
2023-03-02T23:48:28.656Z,100635.22
2023-03-02T23:50:55.210Z,100639.66
2023-03-02T23:53:24.070Z,100635.16
2023-03-02T23:55:53.518Z,100631.69
2023-03-02T23:58:20.437Z,100632.97
